createdAt,value
2019-04-28T00:00:56.972Z,15.13
2019-04-28T00:03:24.031Z,20.03
2019-04-28T00:05:51.583Z,15.93
2019-04-28T00:08:20.357Z,16.27
2019-04-28T00:10:47.688Z,16.97
2019-04-28T00:13:14.835Z,15.30
2019-04-28T00:15:41.991Z,20.40
2019-04-28T00:18:09.123Z,19.17
2019-04-28T00:21:11.003Z,16.57
2019-04-28T00:23:56.595Z,17.43
2019-04-28T00:26:34.751Z,15.80
2019-04-28T00:29:01.896Z,18.43
2019-04-28T00:31:28.951Z,14.07
2019-04-28T00:33:55.999Z,16.70
2019-04-28T00:36:23.051Z,18.80
2019-04-28T00:38:51.454Z,17.53
2019-04-28T00:41:18.743Z,13.50
2019-04-28T00:43:45.891Z,19.20
2019-04-28T00:46:14.459Z,15.83
2019-04-28T00:48:41.498Z,15.40
2019-04-28T00:51:08.540Z,18.37
2019-04-28T00:53:35.676Z,17.63
2019-04-28T00:56:02.952Z,18.10
2019-04-28T00:58:31.890Z,20.57
2019-04-28T01:01:02.563Z,17.53
2019-04-28T01:03:29.601Z,16.47
2019-04-28T01:05:56.656Z,15.97
2019-04-28T01:08:23.908Z,16.63
2019-04-28T01:10:51.056Z,16.13
2019-04-28T01:13:19.324Z,17.77
2019-04-28T01:15:57.079Z,17.43
2019-04-28T01:18:40.492Z,15.17
2019-04-28T01:21:07.773Z,15.30
2019-04-28T01:23:34.819Z,16.73
2019-04-28T01:26:01.959Z,19.10
2019-04-28T01:28:29.758Z,14.83
2019-04-28T01:31:13.434Z,17.87
2019-04-28T01:34:03.025Z,16.20
2019-04-28T01:36:30.671Z,12.77
2019-04-28T01:38:57.733Z,15.57
2019-04-28T01:41:24.900Z,12.57
2019-04-28T01:43:52.381Z,10.37
2019-04-28T01:46:19.938Z,13.83
2019-04-28T01:48:47.269Z,12.40
2019-04-28T01:51:14.416Z,12.03
2019-04-28T01:53:41.472Z,10.53
2019-04-28T01:56:10.480Z,10.17
2019-04-28T01:58:37.577Z,9.30
2019-04-28T02:01:04.931Z,8.17
2019-04-28T02:03:31.987Z,7.00
2019-04-28T02:06:00.189Z,7.97
2019-04-28T02:08:27.928Z,10.70
2019-04-28T02:10:55.011Z,7.43
2019-04-28T02:13:22.083Z,9.53
2019-04-28T02:15:50.106Z,12.60
2019-04-28T02:18:17.600Z,11.00
2019-04-28T02:20:49.348Z,9.40
2019-04-28T02:23:22.233Z,8.20
2019-04-28T02:25:49.768Z,9.27
2019-04-28T02:28:16.928Z,9.03
2019-04-28T02:30:49.386Z,9.27
2019-04-28T02:33:12.955Z,9.70
2019-04-28T02:35:41.865Z,9.93
2019-04-28T02:38:11.377Z,12.37
2019-04-28T02:40:40.623Z,10.10
2019-04-28T02:43:07.600Z,10.07
2019-04-28T02:45:35.169Z,12.87
2019-04-28T02:48:04.436Z,12.03
2019-04-28T02:50:41.199Z,9.87
2019-04-28T02:53:22.873Z,8.90
2019-04-28T02:55:51.419Z,11.23
2019-04-28T02:58:22.092Z,11.57
2019-04-28T03:01:02.755Z,12.27
2019-04-28T03:03:16.600Z,10.73
2019-04-28T03:05:43.756Z,12.07
2019-04-28T03:08:11.253Z,13.80
2019-04-28T03:10:41.088Z,10.87
2019-04-28T03:13:10.798Z,10.53
2019-04-28T03:15:37.304Z,12.67
2019-04-28T03:18:04.353Z,5.43
2019-04-28T03:20:32.133Z,8.33
2019-04-28T03:23:00.975Z,8.37
2019-04-28T03:25:43.044Z,6.00
2019-04-28T03:28:16.744Z,6.20
2019-04-28T03:31:33.612Z,4.87
2019-04-28T03:33:35.913Z,5.37
2019-04-28T03:36:03.657Z,6.03
2019-04-28T03:38:31.054Z,4.53
2019-04-28T03:41:00.783Z,6.20
2019-04-28T03:43:27.272Z,4.50
2019-04-28T03:46:02.786Z,4.73
2019-04-28T03:48:30.831Z,5.30
2019-04-28T03:50:57.753Z,4.80
2019-04-28T03:53:24.827Z,6.23
2019-04-28T03:55:51.925Z,5.27
2019-04-28T03:58:23.766Z,6.20
2019-04-28T04:00:50.433Z,7.77
2019-04-28T04:03:16.997Z,7.07
2019-04-28T04:05:44.064Z,4.20
2019-04-28T04:08:11.210Z,8.70
2019-04-28T04:10:56.240Z,6.60
2019-04-28T04:13:33.637Z,5.40
2019-04-28T04:16:40.347Z,5.63
2019-04-28T04:19:10.619Z,5.90
2019-04-28T04:21:40.724Z,7.63
2019-04-28T04:24:11.172Z,6.53
2019-04-28T04:26:40.907Z,8.90
2019-04-28T04:29:11.503Z,6.57
2019-04-28T04:31:41.381Z,7.00
2019-04-28T04:34:10.828Z,6.10
2019-04-28T04:36:41.743Z,8.77
2019-04-28T04:39:10.999Z,7.07
2019-04-28T04:41:43.028Z,10.87
2019-04-28T04:44:07.083Z,8.70
2019-04-28T04:46:34.136Z,9.27
2019-04-28T04:49:02.308Z,12.53
2019-04-28T04:51:30.644Z,9.00
2019-04-28T04:54:00.696Z,11.53
2019-04-28T04:56:27.148Z,10.60
2019-04-28T04:58:54.303Z,15.03
2019-04-28T05:01:40.717Z,11.97
2019-04-28T05:04:27.309Z,11.03
2019-04-28T05:06:54.371Z,12.43
2019-04-28T05:09:21.544Z,15.60
2019-04-28T05:11:49.966Z,13.37
2019-04-28T05:14:19.645Z,10.80
2019-04-28T05:16:46.712Z,15.57
2019-04-28T05:19:13.776Z,12.67
2019-04-28T05:21:40.823Z,12.87
2019-04-28T05:24:16.082Z,15.40
2019-04-28T05:26:47.736Z,14.13
2019-04-28T05:29:13.109Z,9.70
2019-04-28T05:31:40.277Z,15.47
2019-04-28T05:34:08.096Z,12.13
2019-04-28T05:36:40.981Z,11.60
2019-04-28T05:39:05.859Z,14.67
2019-04-28T05:41:34.820Z,12.70
2019-04-28T05:44:01.883Z,14.87
2019-04-28T05:46:30.033Z,14.70
2019-04-28T05:49:04.899Z,15.37
2019-04-28T05:51:33.531Z,14.67
2019-04-28T05:54:10.052Z,15.43
2019-04-28T05:56:45.224Z,13.63
2019-04-28T05:59:16.373Z,16.87
2019-04-28T06:02:00.580Z,14.17
2019-04-28T06:04:30.285Z,16.50
2019-04-28T06:07:06.259Z,11.23
2019-04-28T06:09:39.815Z,11.60
2019-04-28T06:12:10.302Z,13.83
2019-04-28T06:14:37.675Z,13.67
2019-04-28T06:17:04.730Z,14.23
2019-04-28T06:19:31.788Z,14.60
2019-04-28T06:21:58.845Z,14.10
2019-04-28T06:24:25.916Z,13.30
2019-04-28T06:26:52.972Z,10.73
2019-04-28T06:29:20.040Z,13.43
2019-04-28T06:31:48.490Z,12.77
2019-04-28T06:34:15.540Z,14.10
2019-04-28T06:36:42.692Z,14.80
2019-04-28T06:39:10.453Z,14.43
2019-04-28T06:41:37.516Z,10.27
2019-04-28T06:44:04.924Z,14.63
2019-04-28T06:46:32.082Z,12.13
2019-04-28T06:48:59.135Z,13.60
2019-04-28T06:51:26.297Z,10.03
2019-04-28T06:53:53.463Z,12.43
2019-04-28T06:56:20.662Z,11.20
2019-04-28T06:58:58.360Z,10.90
2019-04-28T07:01:16.705Z,10.43
2019-04-28T07:03:43.790Z,8.93
2019-04-28T07:06:10.924Z,12.10
2019-04-28T07:08:38.235Z,13.30
2019-04-28T07:11:05.400Z,7.83
2019-04-28T07:13:32.468Z,10.07
2019-04-28T07:15:59.623Z,8.97
2019-04-28T07:18:28.172Z,9.50
2019-04-28T07:21:07.428Z,8.33
2019-04-28T07:23:36.261Z,9.07
2019-04-28T07:26:04.000Z,5.40
2019-04-28T07:28:31.252Z,7.23
2019-04-28T07:30:59.976Z,6.73
2019-04-28T07:33:35.806Z,7.90
2019-04-28T07:35:56.104Z,6.63
2019-04-28T07:38:23.560Z,6.17
2019-04-28T07:40:50.623Z,7.40
2019-04-28T07:43:17.672Z,6.37
2019-04-28T07:45:44.717Z,5.80
2019-04-28T07:48:12.708Z,7.70
2019-04-28T07:50:39.761Z,6.57
2019-04-28T07:53:15.795Z,7.53
2019-04-28T07:55:42.965Z,7.47
2019-04-28T07:58:10.024Z,6.30
2019-04-28T08:00:37.181Z,6.87
2019-04-28T08:03:04.443Z,6.90
2019-04-28T08:05:31.508Z,7.93
2019-04-28T08:07:58.667Z,8.37
2019-04-28T08:10:25.726Z,7.03
2019-04-28T08:12:53.237Z,8.57
2019-04-28T08:15:20.428Z,6.30
2019-04-28T08:17:47.547Z,5.47
2019-04-28T08:20:14.801Z,5.63
2019-04-28T08:22:41.961Z,5.77
2019-04-28T08:25:10.821Z,6.47
2019-04-28T08:27:37.896Z,4.83
2019-04-28T08:30:07.147Z,5.93
2019-04-28T08:32:53.996Z,6.00
2019-04-28T08:35:21.097Z,6.07
2019-04-28T08:37:48.143Z,7.47
2019-04-28T08:40:15.300Z,6.93
2019-04-28T08:42:42.353Z,6.53
2019-04-28T08:45:09.715Z,5.00
2019-04-28T08:47:36.888Z,5.57
2019-04-28T08:50:04.593Z,6.73
2019-04-28T08:52:31.759Z,6.70
2019-04-28T08:54:58.828Z,7.37
2019-04-28T08:57:26.138Z,7.13
2019-04-28T08:59:53.291Z,6.77
2019-04-28T09:02:20.356Z,6.13
2019-04-28T09:04:47.421Z,5.40
2019-04-28T09:07:14.596Z,5.87
2019-04-28T09:09:41.639Z,6.20
2019-04-28T09:12:08.704Z,6.33
2019-04-28T09:14:35.760Z,5.60
2019-04-28T09:17:02.817Z,9.00
2019-04-28T09:19:29.971Z,5.57
2019-04-28T09:21:57.032Z,8.63
2019-04-28T09:24:24.100Z,8.50
2019-04-28T09:26:51.180Z,7.37
2019-04-28T09:29:18.330Z,7.00
2019-04-28T09:31:45.495Z,5.07
2019-04-28T09:34:12.559Z,6.00
2019-04-28T09:36:39.615Z,4.57
2019-04-28T09:39:08.488Z,3.27
2019-04-28T09:41:38.095Z,4.33
2019-04-28T09:44:14.195Z,4.33
2019-04-28T09:46:41.807Z,3.67
2019-04-28T09:49:08.873Z,4.40
2019-04-28T09:51:36.249Z,3.83
2019-04-28T09:54:03.783Z,4.53
2019-04-28T09:56:30.844Z,5.30
2019-04-28T09:58:57.912Z,4.40
2019-04-28T10:01:25.072Z,4.67
2019-04-28T10:03:52.140Z,3.73
2019-04-28T10:06:19.380Z,3.93
2019-04-28T10:08:47.451Z,4.40
2019-04-28T10:11:14.518Z,5.37
2019-04-28T10:13:41.908Z,5.20
2019-04-28T10:16:09.440Z,3.60
2019-04-28T10:18:36.487Z,3.80
2019-04-28T10:21:03.764Z,3.90
2019-04-28T10:23:30.829Z,3.70
2019-04-28T10:25:57.875Z,5.07
2019-04-28T10:28:25.128Z,5.60
2019-04-28T10:30:52.288Z,2.97
2019-04-28T10:33:19.455Z,3.33
2019-04-28T10:35:46.609Z,3.87
2019-04-28T10:38:13.687Z,3.43
2019-04-28T10:41:03.388Z,4.03
2019-04-28T10:43:30.559Z,4.13
2019-04-28T10:45:57.705Z,4.60
2019-04-28T10:48:24.765Z,5.37
2019-04-28T10:50:51.827Z,5.70
2019-04-28T10:53:19.330Z,4.23
2019-04-28T10:55:46.375Z,4.23
2019-04-28T10:58:13.533Z,4.97
2019-04-28T11:00:41.202Z,6.20
2019-04-28T11:03:08.357Z,5.33
2019-04-28T11:05:45.153Z,7.33
2019-04-28T11:08:47.080Z,7.30
2019-04-28T11:11:21.367Z,7.97
2019-04-28T11:13:48.636Z,8.77
2019-04-28T11:16:18.000Z,7.57
2019-04-28T11:18:45.299Z,7.30
2019-04-28T11:21:12.553Z,6.07
2019-04-28T11:23:39.819Z,6.77
2019-04-28T11:26:07.083Z,9.63
2019-04-28T11:28:34.156Z,7.43
2019-04-28T11:31:01.381Z,7.90
2019-04-28T11:33:38.028Z,8.17
2019-04-28T11:36:05.083Z,8.20
2019-04-28T11:38:32.243Z,6.37
2019-04-28T11:40:59.295Z,5.23
2019-04-28T11:43:26.575Z,5.03
2019-04-28T11:45:53.840Z,5.53
2019-04-28T11:48:20.899Z,5.30
2019-04-28T11:50:47.972Z,5.47
2019-04-28T11:53:15.235Z,6.57
2019-04-28T11:55:42.403Z,5.93
2019-04-28T11:58:10.060Z,7.40
2019-04-28T12:00:37.214Z,9.30
2019-04-28T12:03:04.485Z,5.17
2019-04-28T12:05:40.579Z,6.70
2019-04-28T12:08:07.701Z,5.50
2019-04-28T12:10:39.463Z,5.03
2019-04-28T12:13:20.062Z,5.70
2019-04-28T12:16:02.799Z,5.37
2019-04-28T12:18:48.195Z,6.17
2019-04-28T12:21:15.349Z,4.20
2019-04-28T12:23:43.607Z,5.07
2019-04-28T12:26:10.769Z,4.40
2019-04-28T12:28:37.831Z,5.70
2019-04-28T12:31:04.898Z,5.07
2019-04-28T12:33:32.968Z,5.07
2019-04-28T12:36:00.131Z,7.10
2019-04-28T12:38:27.287Z,5.30
2019-04-28T12:40:54.359Z,6.67
2019-04-28T12:43:21.457Z,5.53
2019-04-28T12:45:48.963Z,5.23
2019-04-28T12:48:16.023Z,5.77
2019-04-28T12:50:49.284Z,5.53
2019-04-28T12:53:16.691Z,5.63
2019-04-28T12:55:44.332Z,7.33
2019-04-28T12:58:11.403Z,7.30
2019-04-28T13:00:47.996Z,6.83
2019-04-28T13:03:34.815Z,5.57
2019-04-28T13:06:05.848Z,3.37
2019-04-28T13:08:32.480Z,3.37
2019-04-28T13:10:59.770Z,4.67
2019-04-28T13:13:26.847Z,5.20
2019-04-28T13:15:54.035Z,4.27
2019-04-28T13:18:21.088Z,4.70
2019-04-28T13:20:48.151Z,5.63
2019-04-28T13:23:15.208Z,4.00
2019-04-28T13:25:42.689Z,4.47
2019-04-28T13:28:10.155Z,3.50
2019-04-28T13:30:37.213Z,3.77
2019-04-28T13:33:04.475Z,3.57
2019-04-28T13:35:32.156Z,3.67
2019-04-28T13:37:59.309Z,4.03
2019-04-28T13:40:29.974Z,3.37
2019-04-28T13:42:57.140Z,4.17
2019-04-28T13:45:24.484Z,4.37
2019-04-28T13:47:51.576Z,2.80
2019-04-28T13:50:31.279Z,2.50
2019-04-28T13:52:58.362Z,1.90
2019-04-28T13:55:48.025Z,2.03
2019-04-28T13:58:16.880Z,1.47
2019-04-28T14:01:06.124Z,1.30
2019-04-28T14:03:59.288Z,1.83
2019-04-28T14:06:28.592Z,1.50
2019-04-28T14:08:55.633Z,1.93
2019-04-28T14:11:22.848Z,1.83
2019-04-28T14:13:50.013Z,2.23
2019-04-28T14:16:17.060Z,2.00
2019-04-28T14:18:44.331Z,2.50
2019-04-28T14:21:11.415Z,2.60
2019-04-28T14:23:38.502Z,2.33
2019-04-28T14:26:05.572Z,2.67
2019-04-28T14:28:32.634Z,2.73
2019-04-28T14:30:59.695Z,2.20
2019-04-28T14:33:26.928Z,2.70
2019-04-28T14:35:54.074Z,2.13
2019-04-28T14:38:21.524Z,3.97
2019-04-28T14:40:48.596Z,4.30
2019-04-28T14:43:15.988Z,2.53
2019-04-28T14:45:43.220Z,4.47
2019-04-28T14:48:10.284Z,2.70
2019-04-28T14:50:42.047Z,3.13
2019-04-28T14:53:09.196Z,2.93
2019-04-28T14:55:36.525Z,3.60
2019-04-28T14:58:03.728Z,2.90
2019-04-28T15:00:36.787Z,4.03
2019-04-28T15:03:06.956Z,3.33
2019-04-28T15:05:55.929Z,2.93
2019-04-28T15:08:33.530Z,3.70
2019-04-28T15:11:35.177Z,3.50
2019-04-28T15:14:02.636Z,3.50
2019-04-28T15:16:30.139Z,3.87
2019-04-28T15:18:58.238Z,3.97
2019-04-28T15:21:25.367Z,3.67
2019-04-28T15:23:52.448Z,2.90
2019-04-28T15:26:19.522Z,3.53
2019-04-28T15:28:46.563Z,4.77
2019-04-28T15:31:13.832Z,3.90
2019-04-28T15:33:40.920Z,4.97
2019-04-28T15:36:08.087Z,3.83
2019-04-28T15:38:35.256Z,3.37
2019-04-28T15:41:02.331Z,3.63
2019-04-28T15:43:29.403Z,3.50
2019-04-28T15:45:56.471Z,3.43
2019-04-28T15:48:23.553Z,3.50
2019-04-28T15:50:50.612Z,2.63
2019-04-28T15:53:17.790Z,3.07
2019-04-28T15:55:52.068Z,3.07
2019-04-28T15:58:28.587Z,3.30
2019-04-28T16:00:55.917Z,2.30
2019-04-28T16:03:23.007Z,2.80
2019-04-28T16:05:50.087Z,2.67
2019-04-28T16:08:17.140Z,2.53
2019-04-28T16:10:44.290Z,2.50
2019-04-28T16:13:11.323Z,2.87
2019-04-28T16:15:38.388Z,2.87
2019-04-28T16:18:05.554Z,2.60
2019-04-28T16:20:32.616Z,2.47
2019-04-28T16:22:59.686Z,2.63
2019-04-28T16:25:26.753Z,2.40
2019-04-28T16:27:53.820Z,2.60
2019-04-28T16:30:23.200Z,3.03
2019-04-28T16:32:50.875Z,2.93
2019-04-28T16:35:18.943Z,2.93
2019-04-28T16:37:46.003Z,2.90
2019-04-28T16:40:13.363Z,2.07
2019-04-28T16:43:00.723Z,2.93
2019-04-28T16:45:29.796Z,2.00
2019-04-28T16:47:57.122Z,2.40
2019-04-28T16:50:24.394Z,2.37
2019-04-28T16:52:51.453Z,2.70
2019-04-28T16:55:30.856Z,2.87
2019-04-28T16:58:23.534Z,2.57
2019-04-28T17:01:10.317Z,2.20
2019-04-28T17:03:37.783Z,2.03
2019-04-28T17:06:04.945Z,2.00
2019-04-28T17:08:32.020Z,2.23
2019-04-28T17:10:59.319Z,2.97
2019-04-28T17:13:26.389Z,3.13
2019-04-28T17:15:53.532Z,3.80
2019-04-28T17:18:21.601Z,3.13
2019-04-28T17:20:48.668Z,3.33
2019-04-28T17:23:16.731Z,2.70
2019-04-28T17:25:43.792Z,2.83
2019-04-28T17:28:10.931Z,3.20
2019-04-28T17:30:38.200Z,2.60
2019-04-28T17:33:05.604Z,2.93
2019-04-28T17:35:32.885Z,2.60
2019-04-28T17:38:06.328Z,2.93
2019-04-28T17:40:29.743Z,4.40
2019-04-28T17:42:56.904Z,2.60
2019-04-28T17:45:24.541Z,3.17
2019-04-28T17:47:53.752Z,2.90
2019-04-28T17:50:20.904Z,2.90
2019-04-28T17:52:48.316Z,2.70
2019-04-28T17:55:15.356Z,3.47
2019-04-28T17:57:42.434Z,3.57
2019-04-28T18:00:26.774Z,3.60
2019-04-28T18:03:09.452Z,3.83
2019-04-28T18:05:43.893Z,3.63
2019-04-28T18:08:20.821Z,3.43
2019-04-28T18:10:40.148Z,5.30
2019-04-28T18:13:07.403Z,3.80
2019-04-28T18:15:52.411Z,3.43
2019-04-28T18:18:39.289Z,3.53
2019-04-28T18:21:06.553Z,3.90
2019-04-28T18:23:34.839Z,4.00
2019-04-28T18:26:02.007Z,4.40
2019-04-28T18:28:29.060Z,6.03
2019-04-28T18:31:18.931Z,4.73
2019-04-28T18:34:04.222Z,4.90
2019-04-28T18:36:41.172Z,5.07
2019-04-28T18:39:43.417Z,5.63
2019-04-28T18:42:20.755Z,5.60
2019-04-28T18:44:47.807Z,6.53
2019-04-28T18:47:14.871Z,5.30
2019-04-28T18:49:41.928Z,5.87
2019-04-28T18:52:08.992Z,5.83
2019-04-28T18:54:36.072Z,6.30
2019-04-28T18:57:03.353Z,6.87
2019-04-28T18:59:30.941Z,6.53
2019-04-28T19:02:15.888Z,7.13
2019-04-28T19:04:42.953Z,6.87
2019-04-28T19:07:12.831Z,7.10
2019-04-28T19:09:47.046Z,7.03
2019-04-28T19:12:36.605Z,6.50
2019-04-28T19:15:22.554Z,7.17
2019-04-28T19:17:57.111Z,7.53
2019-04-28T19:20:24.173Z,6.77
2019-04-28T19:22:51.224Z,7.10
2019-04-28T19:25:20.695Z,7.57
2019-04-28T19:27:47.851Z,7.10
2019-04-28T19:30:18.498Z,8.20
2019-04-28T19:32:46.257Z,8.43
2019-04-28T19:35:13.444Z,7.13
2019-04-28T19:37:42.498Z,8.00
2019-04-28T19:40:09.860Z,7.47
2019-04-28T19:42:37.047Z,8.43
2019-04-28T19:45:05.877Z,10.10
2019-04-28T19:47:32.959Z,9.80
2019-04-28T19:50:00.019Z,9.97
2019-04-28T19:52:27.183Z,7.90
2019-04-28T19:55:08.479Z,9.53
2019-04-28T19:57:41.792Z,8.37
2019-04-28T20:00:19.260Z,8.73
2019-04-28T20:02:46.748Z,8.97
2019-04-28T20:05:14.078Z,8.70
2019-04-28T20:07:42.316Z,9.70
2019-04-28T20:10:09.516Z,9.80
2019-04-28T20:12:36.575Z,9.97
2019-04-28T20:15:03.960Z,9.43
2019-04-28T20:17:31.016Z,10.17
2019-04-28T20:19:58.185Z,9.77
2019-04-28T20:22:25.236Z,9.93
2019-04-28T20:24:52.419Z,10.17
2019-04-28T20:27:19.621Z,9.83
2019-04-28T20:29:46.671Z,11.07
2019-04-28T20:32:13.732Z,11.03
2019-04-28T20:34:40.805Z,10.67
2019-04-28T20:37:14.845Z,10.47
2019-04-28T20:39:44.969Z,10.40
2019-04-28T20:42:30.257Z,10.47
2019-04-28T20:44:57.324Z,11.80
2019-04-28T20:47:24.396Z,10.60
2019-04-28T20:49:51.456Z,11.07
2019-04-28T20:52:18.787Z,11.47
2019-04-28T20:54:45.892Z,10.97
2019-04-28T20:57:12.956Z,11.13
2019-04-28T20:59:40.022Z,10.67
2019-04-28T21:02:07.345Z,12.90
2019-04-28T21:04:34.437Z,11.23
2019-04-28T21:07:01.744Z,10.63
2019-04-28T21:09:28.816Z,11.63
2019-04-28T21:11:55.897Z,11.23
2019-04-28T21:14:23.238Z,10.93
2019-04-28T21:16:50.377Z,12.50
2019-04-28T21:19:17.435Z,11.30
2019-04-28T21:21:44.528Z,11.53
2019-04-28T21:24:11.825Z,13.50
2019-04-28T21:26:38.876Z,11.63
2019-04-28T21:29:05.948Z,11.30
2019-04-28T21:31:33.045Z,11.80
2019-04-28T21:34:00.216Z,11.27
2019-04-28T21:36:27.269Z,10.97
2019-04-28T21:38:54.569Z,11.20
2019-04-28T21:41:21.643Z,10.53
2019-04-28T21:44:11.257Z,14.07
2019-04-28T21:46:43.176Z,11.13
2019-04-28T21:49:28.132Z,11.83
2019-04-28T21:51:55.215Z,11.33
2019-04-28T21:54:22.274Z,12.27
2019-04-28T21:56:49.337Z,12.17
2019-04-28T21:59:16.397Z,12.60
2019-04-28T22:01:44.558Z,12.33
2019-04-28T22:04:11.707Z,12.70
2019-04-28T22:06:38.769Z,12.20
2019-04-28T22:09:06.396Z,13.03
2019-04-28T22:11:35.599Z,13.10
2019-04-28T22:14:02.988Z,13.10
2019-04-28T22:16:30.093Z,12.23
2019-04-28T22:18:57.362Z,12.80
2019-04-28T22:21:24.420Z,11.57
2019-04-28T22:23:58.524Z,11.27
2019-04-28T22:27:03.230Z,13.83
2019-04-28T22:29:30.286Z,14.23
2019-04-28T22:31:57.352Z,13.03
2019-04-28T22:34:24.431Z,13.43
2019-04-28T22:36:51.612Z,13.50
2019-04-28T22:39:18.783Z,13.77
2019-04-28T22:41:46.068Z,14.73
2019-04-28T22:44:13.333Z,13.57
2019-04-28T22:46:40.500Z,14.20
2019-04-28T22:49:07.564Z,13.40
2019-04-28T22:51:34.851Z,12.77
2019-04-28T22:54:08.368Z,14.43
2019-04-28T22:56:39.011Z,14.50
2019-04-28T22:59:13.323Z,12.80
2019-04-28T23:01:43.801Z,14.00
2019-04-28T23:04:19.994Z,14.10
2019-04-28T23:06:47.147Z,12.33
2019-04-28T23:09:16.516Z,14.33
2019-04-28T23:11:43.849Z,15.87
2019-04-28T23:14:10.907Z,13.40
2019-04-28T23:16:38.085Z,14.10
2019-04-28T23:19:07.549Z,12.93
2019-04-28T23:21:44.731Z,15.93
2019-04-28T23:24:11.892Z,14.13
2019-04-28T23:26:39.153Z,13.80
2019-04-28T23:29:06.300Z,15.87
2019-04-28T23:31:33.444Z,13.93
2019-04-28T23:34:00.553Z,14.23
2019-04-28T23:36:27.853Z,15.70
2019-04-28T23:38:55.016Z,15.07
2019-04-28T23:41:34.079Z,13.30
2019-04-28T23:44:01.158Z,15.17
2019-04-28T23:46:50.600Z,13.27
2019-04-28T23:49:17.647Z,14.20
2019-04-28T23:51:57.373Z,14.00
2019-04-28T23:54:24.447Z,15.23
2019-04-28T23:56:51.508Z,16.63
2019-04-28T23:59:18.587Z,16.13
